Time;durP1;ratioP1;P1;durP2;ratioP2;P2;SDS_P1;SDS_P2;PMS_P1;PMS_P2;Temp;Humidity;BMP_temperature;BMP_pressure;BME280_temperature;BME280_humidity;BME280_pressure;Samples;Min_cycle;Max_cycle;Signal;HPM_P1;HPM_P2
2023/05/19 00:00:27;;;;;;;2.10;0.60;;;9.90;99.90;;;;;;4999526;28;20406;-78
2023/05/19 00:02:56;;;;;;;6.43;0.68;;;9.80;99.90;;;;;;5013195;28;20096;-78
2023/05/19 00:05:29;;;;;;;0.95;0.70;;;9.80;99.90;;;;;;4988980;28;20046;-73
2023/05/19 00:08:00;;;;;;;2.25;0.60;;;9.70;99.90;;;;;;5011826;28;20099;-73
2023/05/19 00:10:30;;;;;;;1.77;0.73;;;9.70;99.90;;;;;;5013801;28;20491;-72
2023/05/19 00:12:59;;;;;;;3.83;0.50;;;9.60;99.90;;;;;;5012373;28;20077;-72
2023/05/19 00:15:27;;;;;;;0.82;0.40;;;9.60;99.90;;;;;;4979770;28;20470;-73
2023/05/19 00:17:54;;;;;;;0.85;0.50;;;9.50;99.90;;;;;;5011959;28;20145;-72
2023/05/19 00:20:22;;;;;;;6.63;0.60;;;9.40;99.90;;;;;;5014080;28;20045;-72
2023/05/19 00:22:49;;;;;;;0.30;0.30;;;9.40;99.90;;;;;;5011134;28;20430;-72
2023/05/19 00:25:18;;;;;;;2.67;0.60;;;9.30;99.90;;;;;;5011984;28;20058;-72
2023/05/19 00:27:46;;;;;;;1.58;0.73;;;9.30;99.90;;;;;;5012308;28;20522;-72
2023/05/19 00:30:14;;;;;;;5.32;0.50;;;9.20;99.90;;;;;;5003844;28;20050;-72
2023/05/19 00:32:41;;;;;;;2.17;0.63;;;9.20;99.90;;;;;;4994966;28;20038;-72
2023/05/19 00:35:09;;;;;;;4.32;0.55;;;9.20;99.90;;;;;;4994051;28;20049;-72
2023/05/19 00:37:37;;;;;;;0.63;0.43;;;9.10;99.90;;;;;;5008894;28;20074;-72
2023/05/19 00:40:07;;;;;;;3.22;0.40;;;9.10;99.90;;;;;;5001645;28;20050;-73
2023/05/19 00:42:35;;;;;;;0.63;0.50;;;9.10;99.90;;;;;;4994773;28;20077;-73
2023/05/19 00:45:03;;;;;;;2.72;0.52;;;9.10;99.90;;;;;;5007965;28;20142;-72
2023/05/19 00:47:33;;;;;;;0.55;0.30;;;9.10;99.90;;;;;;5010661;28;20065;-72
2023/05/19 00:50:00;;;;;;;2.40;0.80;;;9.00;99.90;;;;;;5012326;28;20578;-72
2023/05/19 00:52:28;;;;;;;2.83;0.60;;;9.00;99.90;;;;;;4991227;28;20431;-72
2023/05/19 00:54:56;;;;;;;0.80;0.60;;;8.90;99.90;;;;;;5011493;28;20108;-72
2023/05/19 00:57:25;;;;;;;0.77;0.30;;;8.90;99.90;;;;;;4994228;28;20100;-71
2023/05/19 00:59:55;;;;;;;1.52;0.30;;;8.90;99.90;;;;;;5016268;28;20524;-72
2023/05/19 01:02:22;;;;;;;1.08;0.55;;;8.80;99.90;;;;;;4994078;28;20056;-71
2023/05/19 01:04:52;;;;;;;2.47;0.63;;;8.80;99.90;;;;;;5012189;28;20050;-72
2023/05/19 01:07:20;;;;;;;1.85;0.30;;;8.80;99.90;;;;;;4995027;28;20096;-71
2023/05/19 01:09:47;;;;;;;0.82;0.40;;;8.80;99.90;;;;;;5027103;28;20049;-72
2023/05/19 01:12:15;;;;;;;0.50;0.22;;;8.80;99.90;;;;;;5011506;28;20441;-71
2023/05/19 01:14:43;;;;;;;1.52;0.50;;;8.80;99.90;;;;;;5007680;28;20058;-70
2023/05/19 01:17:24;;;;;;;0.60;0.40;;;8.70;99.90;;;;;;4997202;28;20092;-70
2023/05/19 01:20:05;;;;;;;0.30;0.30;;;8.70;99.90;;;;;;4992919;28;20403;-71
2023/05/19 01:22:55;;;;;;;0.50;0.30;;;8.70;99.90;;;;;;5012055;28;20541;-71
2023/05/19 01:26:17;;;;;;;0.43;0.20;;;8.70;99.90;;;;;;4994959;28;20049;-71
2023/05/19 01:29:06;;;;;;;3.97;0.40;;;8.60;99.90;;;;;;5010676;28;20104;-71
2023/05/19 01:31:37;;;;;;;0.93;0.30;;;8.70;99.90;;;;;;5020812;28;20510;-71
2023/05/19 01:34:07;;;;;;;1.50;0.32;;;8.60;99.90;;;;;;4999567;28;20069;-71
2023/05/19 01:36:37;;;;;;;0.40;0.40;;;8.60;99.90;;;;;;4993606;28;20136;-71
2023/05/19 01:39:05;;;;;;;0.40;0.40;;;8.60;99.90;;;;;;4976233;28;20115;-71
2023/05/19 01:41:34;;;;;;;3.42;0.40;;;8.60;99.90;;;;;;5014599;28;20053;-72
2023/05/19 01:44:02;;;;;;;1.02;0.55;;;8.50;99.90;;;;;;4977155;28;20688;-72
2023/05/19 01:46:29;;;;;;;1.70;0.40;;;8.50;99.90;;;;;;4993438;28;20503;-72
2023/05/19 01:48:59;;;;;;;2.40;0.52;;;8.50;99.90;;;;;;4985731;28;20046;-71
2023/05/19 01:51:27;;;;;;;1.65;0.50;;;8.50;99.90;;;;;;5014216;28;20541;-72
2023/05/19 01:53:55;;;;;;;2.25;0.40;;;8.50;99.90;;;;;;5001439;28;20045;-72
2023/05/19 01:56:36;;;;;;;1.50;1.25;;;8.50;99.90;;;;;;4992933;28;20050;-72
2023/05/19 01:59:17;;;;;;;1.25;0.43;;;8.50;99.90;;;;;;4995658;28;20053;-71
2023/05/19 02:01:52;;;;;;;0.75;0.40;;;8.50;99.90;;;;;;4986301;28;20407;-71
2023/05/19 02:04:37;;;;;;;1.75;0.63;;;8.50;99.90;;;;;;5009754;28;20450;-72
2023/05/19 02:07:14;;;;;;;1.85;0.50;;;8.60;99.90;;;;;;4988478;28;20050;-71
2023/05/19 02:10:02;;;;;;;3.60;0.70;;;8.50;99.90;;;;;;5009565;28;20042;-71
2023/05/19 02:12:36;;;;;;;2.45;0.70;;;8.50;99.90;;;;;;5011214;28;20473;-71
2023/05/19 02:15:10;;;;;;;3.55;0.55;;;8.50;99.90;;;;;;4992595;28;20068;-71
2023/05/19 02:17:46;;;;;;;0.40;0.38;;;8.50;99.90;;;;;;4996904;28;20034;-71
2023/05/19 02:20:35;;;;;;;0.40;0.40;;;8.60;99.90;;;;;;4982434;28;20050;-71
2023/05/19 02:23:02;;;;;;;2.55;0.50;;;8.60;99.90;;;;;;4992411;28;20046;-70
2023/05/19 02:25:29;;;;;;;0.85;0.40;;;8.60;99.90;;;;;;5011354;28;20045;-72
2023/05/19 02:27:58;;;;;;;1.83;0.32;;;8.60;99.90;;;;;;5012321;28;20057;-72
2023/05/19 02:30:25;;;;;;;0.52;0.30;;;8.60;99.90;;;;;;4992872;28;20049;-72
2023/05/19 02:32:53;;;;;;;1.63;0.68;;;8.60;99.90;;;;;;5009843;28;20042;-72
2023/05/19 02:35:20;;;;;;;0.80;0.40;;;8.60;99.90;;;;;;4993251;28;20507;-72
2023/05/19 02:37:49;;;;;;;0.30;0.30;;;8.60;99.90;;;;;;4992615;28;20581;-72
2023/05/19 02:40:17;;;;;;;3.90;0.50;;;8.60;99.90;;;;;;4992685;28;20046;-73
2023/05/19 02:42:45;;;;;;;1.45;0.50;;;8.70;99.90;;;;;;4992381;28;20057;-72
2023/05/19 02:45:12;;;;;;;4.50;0.57;;;8.60;99.90;;;;;;5013127;28;20112;-72
2023/05/19 02:47:41;;;;;;;0.52;0.35;;;8.60;99.90;;;;;;5016857;28;20515;-72
2023/05/19 02:50:09;;;;;;;1.08;0.57;;;8.60;99.90;;;;;;5020958;28;20092;-72
2023/05/19 02:52:37;;;;;;;1.17;0.50;;;8.70;99.90;;;;;;5015090;28;20136;-71
2023/05/19 02:55:07;;;;;;;3.92;0.50;;;8.60;99.90;;;;;;5001936;28;20182;-72
2023/05/19 02:57:35;;;;;;;4.78;0.75;;;8.70;99.90;;;;;;5012159;28;20145;-72
2023/05/19 03:00:05;;;;;;;0.98;0.45;;;8.70;99.90;;;;;;4995904;28;20046;-72
2023/05/19 03:02:34;;;;;;;1.17;0.40;;;8.70;99.90;;;;;;5014646;28;20153;-71
2023/05/19 03:05:02;;;;;;;3.03;0.35;;;8.70;99.90;;;;;;5019894;28;20054;-71
2023/05/19 03:07:33;;;;;;;4.32;0.60;;;8.70;99.90;;;;;;5002805;28;20037;-72
2023/05/19 03:10:02;;;;;;;5.28;0.68;;;8.70;99.90;;;;;;5014613;28;20558;-71
2023/05/19 03:12:33;;;;;;;5.05;0.35;;;8.70;99.90;;;;;;4995917;28;20042;-72
2023/05/19 03:15:01;;;;;;;8.50;1.60;;;8.70;99.90;;;;;;4996990;28;20060;-72
2023/05/19 03:17:33;;;;;;;0.75;0.40;;;8.70;99.90;;;;;;4980177;28;20100;-71
2023/05/19 03:20:01;;;;;;;1.17;0.95;;;8.80;99.90;;;;;;5014437;28;20055;-73
2023/05/19 03:22:32;;;;;;;0.57;0.20;;;8.80;99.90;;;;;;5000360;28;20518;-72
2023/05/19 03:24:59;;;;;;;0.60;0.13;;;8.80;99.90;;;;;;4996166;28;20046;-71
2023/05/19 03:27:27;;;;;;;0.98;0.30;;;8.80;99.90;;;;;;5000498;28;20045;-70
2023/05/19 03:29:56;;;;;;;9.88;0.60;;;8.90;99.90;;;;;;4988662;28;20053;-71
2023/05/19 03:32:24;;;;;;;1.85;0.30;;;8.90;99.90;;;;;;5005869;28;20534;-71
2023/05/19 03:34:52;;;;;;;0.82;0.40;;;8.90;99.90;;;;;;4994108;28;20046;-71
2023/05/19 03:37:19;;;;;;;3.95;0.60;;;8.90;99.90;;;;;;4995777;28;20053;-71
2023/05/19 03:39:47;;;;;;;4.95;0.55;;;9.00;99.90;;;;;;5014321;28;20045;-71
2023/05/19 03:42:15;;;;;;;17.92;1.08;;;9.00;99.90;;;;;;4997878;28;20053;-71
2023/05/19 03:44:43;;;;;;;4.22;0.50;;;9.00;99.90;;;;;;5011229;28;20565;-71
2023/05/19 03:47:12;;;;;;;0.40;0.35;;;9.00;99.90;;;;;;4995311;28;20060;-71
2023/05/19 03:49:58;;;;;;;0.45;0.40;;;9.10;99.90;;;;;;4992788;28;20053;-71
2023/05/19 03:53:05;;;;;;;3.50;0.30;;;9.10;99.90;;;;;;4970907;28;20054;-71
2023/05/19 03:55:39;;;;;;;0.70;0.43;;;9.10;99.90;;;;;;4970952;28;20054;-71
2023/05/19 03:58:07;;;;;;;0.68;0.40;;;9.20;99.90;;;;;;4972290;28;20050;-72
2023/05/19 04:00:37;;;;;;;0.95;0.32;;;9.20;99.90;;;;;;4979182;28;20037;-73
2023/05/19 04:03:06;;;;;;;1.75;0.30;;;9.30;99.90;;;;;;4993932;28;20042;-72
2023/05/19 04:05:34;;;;;;;0.45;0.45;;;9.30;99.90;;;;;;5012851;28;20074;-72
2023/05/19 04:08:01;;;;;;;0.63;0.40;;;9.30;99.90;;;;;;5014757;28;20049;-72
2023/05/19 04:10:29;;;;;;;1.40;0.80;;;9.40;99.90;;;;;;5000160;28;20042;-72
2023/05/19 04:12:57;;;;;;;0.80;0.80;;;9.40;99.90;;;;;;5011651;28;20100;-72
2023/05/19 04:15:26;;;;;;;3.08;0.85;;;9.50;99.90;;;;;;4994739;28;20053;-73
2023/05/19 04:17:54;;;;;;;2.05;0.75;;;9.50;99.90;;;;;;5019917;28;20489;-72
2023/05/19 04:20:23;;;;;;;4.38;0.93;;;9.50;99.90;;;;;;4994227;28;20038;-78
2023/05/19 04:22:51;;;;;;;0.60;0.50;;;9.60;99.90;;;;;;4978270;28;20046;-76
2023/05/19 04:25:19;;;;;;;1.73;0.85;;;9.60;99.90;;;;;;4975293;28;20046;-77
2023/05/19 04:27:47;;;;;;;3.35;0.50;;;9.70;99.90;;;;;;4993479;28;20513;-77
2023/05/19 04:30:20;;;;;;;0.22;0.22;;;9.70;99.90;;;;;;5009913;28;20052;-77
2023/05/19 04:32:49;;;;;;;4.65;1.25;;;9.70;99.90;;;;;;4975757;28;20049;-78
2023/05/19 04:35:17;;;;;;;1.52;0.60;;;9.80;99.90;;;;;;5010724;28;20050;-76
2023/05/19 04:37:47;;;;;;;1.30;0.40;;;10.00;99.90;;;;;;5003592;28;20760;-76
2023/05/19 04:40:16;;;;;;;2.35;0.85;;;10.20;99.90;;;;;;5006448;28;20038;-79
2023/05/19 04:42:44;;;;;;;3.13;1.00;;;10.50;99.90;;;;;;4993203;28;20096;-78
2023/05/19 04:45:13;;;;;;;1.20;0.30;;;10.60;99.90;;;;;;4995958;28;20072;-78
2023/05/19 04:47:45;;;;;;;1.83;0.30;;;10.70;99.90;;;;;;5010296;28;20052;-78
2023/05/19 04:50:13;;;;;;;5.70;0.50;;;10.90;99.90;;;;;;4994112;28;20107;-78
2023/05/19 04:52:54;;;;;;;0.80;0.30;;;11.20;99.90;;;;;;4978473;28;20532;-78
2023/05/19 04:55:22;;;;;;;0.50;0.38;;;11.40;99.90;;;;;;4989123;28;20074;-78
2023/05/19 04:57:50;;;;;;;6.75;0.52;;;11.60;99.90;;;;;;4991312;28;20415;-78
2023/05/19 05:00:21;;;;;;;0.75;0.68;;;11.80;99.90;;;;;;4995272;28;20053;-78
2023/05/19 05:02:58;;;;;;;1.30;0.55;;;11.90;99.90;;;;;;4984426;28;20050;-78
2023/05/19 05:05:27;;;;;;;4.13;0.57;;;12.10;99.90;;;;;;4988497;28;20061;-76
2023/05/19 05:07:59;;;;;;;3.78;0.98;;;12.30;99.90;;;;;;5006973;28;20465;-79
2023/05/19 05:10:30;;;;;;;9.15;0.80;;;12.40;99.90;;;;;;4966701;28;20418;-78
2023/05/19 05:13:00;;;;;;;1.42;0.80;;;12.50;99.90;;;;;;4987122;28;20054;-73
2023/05/19 05:15:28;;;;;;;0.90;0.85;;;12.50;99.90;;;;;;5001056;28;20042;-74
2023/05/19 05:18:03;;;;;;;1.42;0.60;;;12.50;99.90;;;;;;4977232;28;20508;-73
2023/05/19 05:20:36;;;;;;;1.38;0.52;;;12.50;99.90;;;;;;4974399;28;20050;-73
2023/05/19 05:23:08;;;;;;;5.88;0.77;;;12.50;99.90;;;;;;4986928;28;20050;-73
2023/05/19 05:25:37;;;;;;;2.63;0.47;;;12.50;99.90;;;;;;4996527;28;20033;-72
2023/05/19 05:28:05;;;;;;;1.02;0.70;;;12.60;99.90;;;;;;4997015;28;20061;-73
2023/05/19 05:30:40;;;;;;;1.20;0.63;;;12.70;99.90;;;;;;4987172;28;20046;-74
2023/05/19 05:33:09;;;;;;;0.68;0.40;;;13.00;99.90;;;;;;5008432;28;20153;-75
2023/05/19 05:35:41;;;;;;;3.70;0.40;;;13.40;99.90;;;;;;4990137;28;21089;-71
2023/05/19 05:38:13;;;;;;;3.72;0.70;;;13.90;99.90;;;;;;5005259;28;21038;-72
2023/05/19 05:40:44;;;;;;;2.83;0.50;;;14.10;99.90;;;;;;5002938;28;20514;-77
2023/05/19 05:43:12;;;;;;;1.88;0.50;;;14.10;99.90;;;;;;4994230;28;20053;-78
2023/05/19 05:45:46;;;;;;;2.97;0.50;;;14.20;99.90;;;;;;4986025;28;20049;-72
2023/05/19 05:48:16;;;;;;;0.47;0.40;;;14.20;99.90;;;;;;4985201;28;20157;-77
2023/05/19 05:50:45;;;;;;;4.28;0.40;;;14.20;99.90;;;;;;5025549;28;20073;-72
2023/05/19 05:53:25;;;;;;;2.53;0.30;;;14.40;99.90;;;;;;4983261;28;20046;-79
2023/05/19 05:55:55;;;;;;;1.10;0.57;;;15.30;99.90;;;;;;5010743;28;20107;-74
2023/05/19 05:58:28;;;;;;;2.97;0.43;;;16.20;99.30;;;;;;4975318;28;20528;-74
2023/05/19 06:00:57;;;;;;;2.50;0.40;;;16.90;93.50;;;;;;5005890;28;20062;-73
2023/05/19 06:03:26;;;;;;;1.42;0.45;;;17.40;90.90;;;;;;4991515;28;20077;-72
2023/05/19 06:05:54;;;;;;;2.15;1.05;;;18.00;88.30;;;;;;4990382;28;20046;-73
2023/05/19 06:08:24;;;;;;;1.65;0.52;;;18.50;83.70;;;;;;4993845;28;20136;-74
2023/05/19 06:10:51;;;;;;;0.77;0.30;;;18.80;80.50;;;;;;5025845;28;20135;-76
2023/05/19 06:13:22;;;;;;;0.90;0.40;;;18.90;78.00;;;;;;5005073;28;20054;-76
2023/05/19 06:15:51;;;;;;;0.50;0.50;;;19.20;77.80;;;;;;4990750;28;20062;-74
2023/05/19 06:18:24;;;;;;;2.05;0.40;;;19.40;74.60;;;;;;4992887;28;20577;-75
2023/05/19 06:20:53;;;;;;;2.15;0.52;;;19.10;73.60;;;;;;4993170;28;20057;-75
2023/05/19 06:23:21;;;;;;;1.38;0.40;;;19.40;75.30;;;;;;5016375;28;20095;-75
2023/05/19 06:25:50;;;;;;;1.73;0.50;;;19.00;71.30;;;;;;5007334;28;20046;-76
2023/05/19 06:28:17;;;;;;;0.95;0.50;;;18.10;72.20;;;;;;4993264;28;20045;-75
2023/05/19 06:30:45;;;;;;;2.45;0.60;;;17.20;73.20;;;;;;4990540;28;20060;-78
2023/05/19 06:33:37;;;;;;;1.23;0.43;;;16.60;77.20;;;;;;4988588;28;20526;-80
2023/05/19 06:36:08;;;;;;;2.08;1.02;;;17.00;78.10;;;;;;4997385;28;20073;-82
2023/05/19 06:38:38;;;;;;;5.25;0.50;;;17.70;76.00;;;;;;5014466;28;20049;-80
2023/05/19 06:41:08;;;;;;;1.58;0.40;;;18.30;74.40;;;;;;4993691;28;20057;-81
2023/05/19 06:43:41;;;;;;;4.45;0.40;;;18.60;71.60;;;;;;4991468;28;20057;-80
2023/05/19 06:46:16;;;;;;;4.95;0.70;;;18.90;72.90;;;;;;4982326;28;20061;-78
2023/05/19 06:48:44;;;;;;;8.55;0.80;;;19.50;71.90;;;;;;5005578;28;20038;-75
2023/05/19 06:51:12;;;;;;;1.83;0.40;;;20.00;70.80;;;;;;4984646;28;20438;-80
2023/05/19 06:53:48;;;;;;;2.95;1.05;;;20.50;69.30;;;;;;4988769;28;20054;-80
2023/05/19 06:56:17;;;;;;;0.68;0.40;;;21.00;67.10;;;;;;4990139;28;20066;-82
2023/05/19 06:58:46;;;;;;;1.05;0.60;;;21.50;65.10;;;;;;4968988;28;20041;-79
2023/05/19 07:01:15;;;;;;;3.17;0.88;;;21.90;63.80;;;;;;4989355;28;20418;-80
2023/05/19 07:03:47;;;;;;;3.03;0.50;;;22.30;63.20;;;;;;4982681;28;20092;-80
2023/05/19 07:06:16;;;;;;;6.93;1.95;;;22.80;61.40;;;;;;5000852;28;20054;-75
2023/05/19 07:08:44;;;;;;;1.58;0.65;;;23.10;59.90;;;;;;4984930;28;20137;-75
2023/05/19 07:11:14;;;;;;;1.20;0.93;;;23.50;58.60;;;;;;4995869;28;20510;-75
2023/05/19 07:13:50;;;;;;;2.30;0.52;;;23.90;58.10;;;;;;5005273;28;20049;-75
2023/05/19 07:16:23;;;;;;;7.07;0.70;;;23.50;56.00;;;;;;4977151;28;20042;-74
2023/05/19 07:18:51;;;;;;;4.15;0.75;;;22.20;56.70;;;;;;4991591;28;20046;-75
2023/05/19 07:21:19;;;;;;;0.70;0.47;;;21.80;58.10;;;;;;4975806;28;20457;-75
2023/05/19 07:23:47;;;;;;;3.08;0.52;;;21.20;58.70;;;;;;4991932;28;20085;-80
2023/05/19 07:26:15;;;;;;;4.32;0.70;;;21.50;59.30;;;;;;4986589;28;20141;-79
2023/05/19 07:28:43;;;;;;;6.35;0.85;;;22.10;59.80;;;;;;4976452;28;20312;-74
2023/05/19 07:31:12;;;;;;;1.35;0.60;;;22.60;58.10;;;;;;5010129;28;20149;-79
2023/05/19 07:33:40;;;;;;;3.92;0.47;;;23.10;57.90;;;;;;4993210;28;20049;-78
2023/05/19 07:36:07;;;;;;;0.52;0.50;;;23.40;56.30;;;;;;5012593;28;20058;-80
2023/05/19 07:38:35;;;;;;;2.17;0.35;;;23.70;56.80;;;;;;4995413;28;20042;-79
2023/05/19 07:41:03;;;;;;;0.30;0.20;;;23.90;54.70;;;;;;4992098;28;20057;-78
2023/05/19 07:43:31;;;;;;;15.60;1.08;;;23.50;53.70;;;;;;5012147;28;20046;-77
2023/05/19 07:45:59;;;;;;;3.40;0.45;;;23.60;55.50;;;;;;5013465;28;20054;-81
2023/05/19 07:48:28;;;;;;;6.05;0.63;;;24.10;55.90;;;;;;5020137;28;20176;-77
2023/05/19 07:50:55;;;;;;;3.95;1.20;;;24.60;54.00;;;;;;4975374;28;20046;-77
2023/05/19 07:53:23;;;;;;;1.77;0.52;;;25.00;53.40;;;;;;5012493;28;20104;-78
2023/05/19 07:55:51;;;;;;;4.90;0.70;;;25.30;52.20;;;;;;5004061;28;20396;-77
2023/05/19 07:58:19;;;;;;;0.65;0.40;;;25.70;53.00;;;;;;4976209;28;20046;-79
2023/05/19 08:00:47;;;;;;;3.88;0.60;;;26.20;51.70;;;;;;4990785;28;20414;-74
2023/05/19 08:03:16;;;;;;;1.73;0.40;;;26.50;50.80;;;;;;5007276;28;20137;-78
2023/05/19 08:05:45;;;;;;;7.05;0.70;;;26.50;50.00;;;;;;4997033;28;20045;-78
2023/05/19 08:08:15;;;;;;;3.35;0.70;;;25.90;49.10;;;;;;4995815;28;20050;-77
2023/05/19 08:10:43;;;;;;;0.80;0.60;;;24.10;50.80;;;;;;5012045;28;20081;-80
2023/05/19 08:13:10;;;;;;;0.95;0.45;;;22.70;53.00;;;;;;5011617;28;20141;-80
2023/05/19 08:15:38;;;;;;;2.05;0.73;;;23.00;55.80;;;;;;5012883;28;20042;-80
2023/05/19 08:18:06;;;;;;;6.30;0.77;;;23.70;54.40;;;;;;5001003;28;20137;-79
2023/05/19 08:20:33;;;;;;;6.05;0.70;;;24.20;53.20;;;;;;5007103;28;20141;-78
2023/05/19 08:23:03;;;;;;;1.95;0.73;;;24.50;51.70;;;;;;5012524;28;20046;-78
2023/05/19 08:25:30;;;;;;;10.57;1.25;;;24.70;50.90;;;;;;5011681;28;20084;-78
2023/05/19 08:27:57;;;;;;;1.58;0.90;;;24.50;52.30;;;;;;4975465;28;20088;-78
2023/05/19 08:30:25;;;;;;;5.95;0.88;;;25.20;51.70;;;;;;5011111;28;20057;-78
2023/05/19 08:32:53;;;;;;;7.38;5.15;;;26.00;50.90;;;;;;5006483;28;20045;-78
2023/05/19 08:35:21;;;;;;;4.65;0.63;;;26.90;50.50;;;;;;5033404;28;20132;-78
2023/05/19 08:37:48;;;;;;;2.40;0.60;;;27.10;48.60;;;;;;5000614;28;20044;-78
2023/05/19 08:40:18;;;;;;;0.57;0.52;;;26.60;48.90;;;;;;4988938;28;20054;-79
2023/05/19 08:42:46;;;;;;;2.83;2.13;;;25.40;48.70;;;;;;4963540;28;20533;-78
2023/05/19 08:45:14;;;;;;;1.40;1.00;;;24.70;50.00;;;;;;5004214;28;20042;-79
2023/05/19 08:47:45;;;;;;;2.25;0.70;;;23.60;50.70;;;;;;4978315;28;20050;-79
2023/05/19 08:50:20;;;;;;;2.97;0.40;;;22.90;52.70;;;;;;5005725;28;20054;-81
2023/05/19 08:52:53;;;;;;;9.40;0.80;;;23.70;52.60;;;;;;4992345;28;20054;-79
2023/05/19 08:55:33;;;;;;;1.92;0.50;;;25.10;51.30;;;;;;4997280;28;20042;-77
2023/05/19 08:58:01;;;;;;;6.10;0.80;;;26.20;48.50;;;;;;5011241;28;20506;-77
2023/05/19 09:00:31;;;;;;;3.40;0.40;;;27.20;48.30;;;;;;5010005;28;20511;-77
2023/05/19 09:02:59;;;;;;;0.70;0.50;;;26.70;47.40;;;;;;4991964;28;20096;-77
2023/05/19 09:05:27;;;;;;;4.03;0.90;;;25.80;48.40;;;;;;5018615;28;20476;-78
2023/05/19 09:07:54;;;;;;;4.40;1.00;;;25.20;48.20;;;;;;4999930;28;20049;-75
2023/05/19 09:10:21;;;;;;;1.75;0.60;;;24.10;49.80;;;;;;5006658;28;20665;-75
2023/05/19 09:12:51;;;;;;;4.68;0.60;;;23.80;52.10;;;;;;5022145;28;20418;-74
2023/05/19 09:15:19;;;;;;;3.72;0.73;;;24.70;50.80;;;;;;5011490;28;20062;-76
2023/05/19 09:17:47;;;;;;;2.47;0.60;;;25.50;48.50;;;;;;4983818;28;20078;-76
2023/05/19 09:20:16;;;;;;;0.98;0.63;;;26.70;48.60;;;;;;5000404;28;20049;-76
2023/05/19 09:22:46;;;;;;;2.55;0.60;;;26.90;46.80;;;;;;5004936;28;20046;-75
2023/05/19 09:25:21;;;;;;;3.00;0.60;;;25.70;47.80;;;;;;4998237;28;20058;-76
2023/05/19 09:27:51;;;;;;;4.97;0.90;;;24.50;49.70;;;;;;4990228;28;20142;-79
2023/05/19 09:30:19;;;;;;;3.00;0.88;;;23.00;52.30;;;;;;5003930;28;20418;-81
2023/05/19 09:32:47;;;;;;;6.85;0.77;;;22.50;54.20;;;;;;4967085;28;20252;-79
2023/05/19 09:35:16;;;;;;;1.45;0.70;;;23.90;52.50;;;;;;5003520;28;20574;-74
2023/05/19 09:37:45;;;;;;;1.10;1.00;;;25.30;50.50;;;;;;5002132;28;20773;-73
2023/05/19 09:40:15;;;;;;;1.90;1.10;;;24.80;50.10;;;;;;5008897;28;20064;-79
2023/05/19 09:42:44;;;;;;;9.18;0.93;;;23.40;51.50;;;;;;5004817;28;20052;-77
2023/05/19 09:45:13;;;;;;;5.47;1.60;;;22.70;54.50;;;;;;4974882;28;20049;-77
2023/05/19 09:47:42;;;;;;;3.47;0.95;;;23.10;55.60;;;;;;4985636;28;20046;-79
2023/05/19 09:50:15;;;;;;;2.80;0.90;;;24.50;53.50;;;;;;5009971;28;20042;-77
2023/05/19 09:52:44;;;;;;;2.85;0.90;;;26.00;52.80;;;;;;5004510;28;20136;-83
2023/05/19 09:55:14;;;;;;;2.95;0.80;;;26.20;50.20;;;;;;5010405;28;20050;-84
2023/05/19 09:57:41;;;;;;;2.25;0.80;;;25.90;50.40;;;;;;5008274;28;20050;-84
2023/05/19 10:00:14;;;;;;;0.63;0.63;;;25.30;49.60;;;;;;5005684;28;20111;-81
2023/05/19 10:02:43;;;;;;;6.88;1.05;;;25.10;50.80;;;;;;5010207;28;20053;-83
2023/05/19 10:05:15;;;;;;;4.20;1.35;;;25.70;50.50;;;;;;4989993;28;20077;-83
2023/05/19 10:07:47;;;;;;;3.38;1.30;;;26.00;50.30;;;;;;5006401;28;20062;-82
2023/05/19 10:10:16;;;;;;;2.00;1.03;;;27.00;49.00;;;;;;4991594;28;20058;-81
2023/05/19 10:12:43;;;;;;;3.55;0.82;;;27.90;48.20;;;;;;5006107;28;20305;-80
2023/05/19 10:15:15;;;;;;;2.80;1.30;;;27.90;46.90;;;;;;5007420;28;20054;-75
2023/05/19 10:17:44;;;;;;;2.88;0.80;;;27.30;47.20;;;;;;4987719;28;20053;-75
2023/05/19 10:20:14;;;;;;;1.85;1.05;;;27.20;48.00;;;;;;5001449;28;20062;-75
2023/05/19 10:22:43;;;;;;;8.98;0.90;;;27.90;47.60;;;;;;4986381;28;20418;-82
2023/05/19 10:25:13;;;;;;;3.60;0.98;;;28.50;46.70;;;;;;5001334;28;20041;-81
2023/05/19 10:27:49;;;;;;;3.70;1.02;;;28.60;47.10;;;;;;4993054;28;20042;-82
2023/05/19 10:30:26;;;;;;;3.70;0.95;;;28.90;45.80;;;;;;5009811;28;20128;-78
2023/05/19 10:32:56;;;;;;;1.70;0.95;;;29.30;45.50;;;;;;4989615;28;20132;-79
2023/05/19 10:35:42;;;;;;;4.15;1.23;;;29.30;45.50;;;;;;5006082;28;20131;-78
2023/05/19 10:38:22;;;;;;;5.38;2.00;;;28.50;46.00;;;;;;4987320;28;20092;-74
2023/05/19 10:41:05;;;;;;;2.50;0.90;;;28.50;46.00;;;;;;4999392;28;20042;-74
2023/05/19 10:43:49;;;;;;;3.60;0.90;;;29.40;45.20;;;;;;5000475;28;20069;-73
2023/05/19 10:46:25;;;;;;;3.03;0.80;;;30.00;45.00;;;;;;4986782;28;20103;-78
2023/05/19 10:48:55;;;;;;;3.35;1.10;;;30.50;44.20;;;;;;5004965;28;20085;-74
2023/05/19 10:51:30;;;;;;;3.92;2.42;;;30.40;43.60;;;;;;4980808;28;20038;-78
2023/05/19 10:53:58;;;;;;;3.50;1.90;;;29.40;43.60;;;;;;4977879;28;20057;-79
2023/05/19 10:56:32;;;;;;;2.75;1.00;;;29.20;45.70;;;;;;4990908;28;20115;-80
2023/05/19 10:59:00;;;;;;;2.13;0.93;;;30.00;44.60;;;;;;5010983;28;20570;-77
2023/05/19 11:01:37;;;;;;;4.97;1.13;;;30.60;43.30;;;;;;4994359;28;20144;-73
2023/05/19 11:04:07;;;;;;;6.05;1.00;;;30.40;43.20;;;;;;5014370;28;20140;-75
2023/05/19 11:06:41;;;;;;;3.63;0.90;;;30.30;43.40;;;;;;5029798;28;20060;-80
2023/05/19 11:09:14;;;;;;;3.50;0.85;;;30.60;43.00;;;;;;4980431;28;20573;-74
2023/05/19 11:11:50;;;;;;;9.82;1.35;;;31.10;43.30;;;;;;5005142;28;20037;-74
2023/05/19 11:14:19;;;;;;;4.25;1.00;;;31.40;44.30;;;;;;5011275;28;20551;-80
2023/05/19 11:16:50;;;;;;;2.65;0.73;;;31.90;43.00;;;;;;5012575;28;20451;-74
2023/05/19 11:19:19;;;;;;;2.88;1.00;;;31.80;41.90;;;;;;4994539;28;20050;-74
2023/05/19 11:21:53;;;;;;;5.00;1.20;;;31.00;43.10;;;;;;5012576;28;20053;-73
2023/05/19 11:24:36;;;;;;;5.47;1.20;;;31.50;43.10;;;;;;4996622;28;20046;-72
2023/05/19 11:27:24;;;;;;;3.15;1.10;;;31.60;42.30;;;;;;5014445;28;20054;-77
2023/05/19 11:29:54;;;;;;;3.60;1.30;;;30.20;42.90;;;;;;5006236;28;20046;-77
2023/05/19 11:32:26;;;;;;;7.10;1.80;;;30.10;43.80;;;;;;4988494;28;20045;-77
2023/05/19 11:34:55;;;;;;;6.40;1.60;;;29.50;43.80;;;;;;5011546;28;20105;-74
2023/05/19 11:37:23;;;;;;;2.05;1.42;;;30.00;44.40;;;;;;5001704;28;20089;-74
2023/05/19 11:39:53;;;;;;;2.65;1.20;;;30.60;43.10;;;;;;4993508;28;20093;-73
2023/05/19 11:42:20;;;;;;;5.95;1.17;;;30.90;43.10;;;;;;4998395;28;20088;-74
2023/05/19 11:44:48;;;;;;;2.90;1.20;;;31.30;42.40;;;;;;5008492;28;20141;-75
2023/05/19 11:47:17;;;;;;;2.72;0.88;;;31.30;43.40;;;;;;5012209;28;20153;-74
2023/05/19 11:49:48;;;;;;;4.68;1.00;;;31.20;41.70;;;;;;5009646;28;20042;-74
2023/05/19 11:52:16;;;;;;;5.13;1.08;;;31.30;42.40;;;;;;4999001;28;20116;-74
2023/05/19 11:54:48;;;;;;;9.23;1.67;;;31.80;42.00;;;;;;5004529;28;20072;-77
2023/05/19 11:57:15;;;;;;;;;;;32.10;41.70;;;;;;4985885;28;20427;-76
2023/05/19 11:59:44;;;;;;;1.92;0.90;;;31.70;41.60;;;;;;4981062;28;19925;-77
2023/05/19 12:02:18;;;;;;;2.20;1.02;;;30.60;42.50;;;;;;4993624;28;20057;-78
2023/05/19 12:04:48;;;;;;;6.45;1.20;;;30.60;44.00;;;;;;5000865;28;20144;-76
2023/05/19 12:07:17;;;;;;;4.68;1.27;;;31.30;43.00;;;;;;5029285;28;20041;-75
2023/05/19 12:09:46;;;;;;;2.08;1.02;;;31.80;41.60;;;;;;4991693;28;20080;-74
2023/05/19 12:12:15;;;;;;;9.35;1.20;;;32.10;41.00;;;;;;4988947;28;20054;-76
2023/05/19 12:14:43;;;;;;;2.25;1.40;;;32.30;41.00;;;;;;5000430;28;20149;-76
2023/05/19 12:17:13;;;;;;;11.90;4.82;;;32.70;41.10;;;;;;5012009;28;20054;-74
2023/05/19 12:19:41;;;;;;;4.32;1.27;;;33.10;40.20;;;;;;5013187;28;20052;-72
2023/05/19 12:22:11;;;;;;;6.13;1.20;;;33.40;40.20;;;;;;5007431;28;20065;-72
2023/05/19 12:24:40;;;;;;;6.70;1.10;;;33.40;39.80;;;;;;5011179;28;20120;-73
2023/05/19 12:27:13;;;;;;;2.40;1.20;;;33.50;40.50;;;;;;5012067;28;20042;-73
2023/05/19 12:29:41;;;;;;;1.65;0.90;;;33.50;40.20;;;;;;5006283;28;20557;-77
2023/05/19 12:32:10;;;;;;;2.47;2.10;;;33.40;39.30;;;;;;5013542;28;20454;-77
2023/05/19 12:34:42;;;;;;;4.50;1.30;;;33.20;40.50;;;;;;4994928;28;20053;-73
2023/05/19 12:37:11;;;;;;;7.10;1.48;;;33.10;40.80;;;;;;5009709;28;20104;-73
2023/05/19 12:39:42;;;;;;;9.88;1.48;;;33.20;39.80;;;;;;5005381;28;20041;-73
2023/05/19 12:42:11;;;;;;;6.00;1.90;;;33.30;39.80;;;;;;4997640;28;20127;-74
2023/05/19 12:44:43;;;;;;;4.07;1.05;;;33.20;39.70;;;;;;5011937;28;20137;-77
2023/05/19 12:47:10;;;;;;;5.47;1.23;;;33.40;39.30;;;;;;4993806;28;20050;-77
2023/05/19 12:49:54;;;;;;;3.88;1.75;;;33.10;40.00;;;;;;5009104;28;20034;-76
2023/05/19 12:52:23;;;;;;;4.00;1.13;;;32.90;40.00;;;;;;4988237;28;20041;-82
2023/05/19 12:54:58;;;;;;;5.57;1.20;;;32.60;40.30;;;;;;5008869;28;20533;-81
2023/05/19 12:57:27;;;;;;;4.03;1.23;;;32.60;40.60;;;;;;4991419;28;20053;-79
2023/05/19 13:00:06;;;;;;;4.75;1.25;;;32.10;40.30;;;;;;4991481;28;20053;-79
2023/05/19 13:02:55;;;;;;;4.60;0.95;;;31.90;40.20;;;;;;5001078;28;20046;-80
2023/05/19 13:05:22;;;;;;;4.70;1.08;;;32.00;40.10;;;;;;5000586;28;20046;-80
2023/05/19 13:07:57;;;;;;;5.55;1.30;;;31.90;40.80;;;;;;4975671;28;20858;-79